createdAt,value
2018-03-11T00:00:00.049Z,8.40
2018-03-11T00:02:27.658Z,8.40
2018-03-11T00:04:55.294Z,8.40
2018-03-11T00:07:22.952Z,8.40
2018-03-11T00:09:51.335Z,8.40
2018-03-11T00:12:18.967Z,8.40
2018-03-11T00:14:46.611Z,8.40
2018-03-11T00:17:14.300Z,8.40
2018-03-11T00:19:42.707Z,8.40
2018-03-11T00:22:11.155Z,8.40
2018-03-11T00:24:38.800Z,8.40
2018-03-11T00:27:07.257Z,8.30
2018-03-11T00:29:34.883Z,8.30
2018-03-11T00:32:03.303Z,8.30
2018-03-11T00:34:31.704Z,8.30
2018-03-11T00:36:59.370Z,8.30
2018-03-11T00:39:27.020Z,8.30
2018-03-11T00:41:55.430Z,8.20
2018-03-11T00:44:23.098Z,8.20
2018-03-11T00:46:50.720Z,8.10
2018-03-11T00:49:18.378Z,8.10
2018-03-11T00:51:46.019Z,8.00
2018-03-11T00:54:13.648Z,8.00
2018-03-11T00:56:41.294Z,7.90
2018-03-11T00:59:09.729Z,7.80
2018-03-11T01:01:37.404Z,7.90
2018-03-11T01:04:05.816Z,7.80
2018-03-11T01:06:33.463Z,7.80
2018-03-11T01:09:01.092Z,7.70
2018-03-11T01:11:28.761Z,7.70
2018-03-11T01:13:56.367Z,7.70
2018-03-11T01:16:24.029Z,7.60
2018-03-11T01:18:54.919Z,7.60
2018-03-11T01:21:22.668Z,7.50
2018-03-11T01:23:50.337Z,7.50
2018-03-11T01:26:17.988Z,7.40
2018-03-11T01:28:45.651Z,7.40
2018-03-11T01:31:13.285Z,7.40
2018-03-11T01:33:41.725Z,7.30
2018-03-11T01:36:09.344Z,7.30
2018-03-11T01:38:37.010Z,7.30
2018-03-11T01:41:04.674Z,7.30
2018-03-11T01:43:32.331Z,7.20
2018-03-11T01:46:00.719Z,7.10
2018-03-11T01:48:28.366Z,7.10
2018-03-11T01:50:56.036Z,7.10
2018-03-11T01:53:23.651Z,7.00
2018-03-11T01:55:51.320Z,6.90
2018-03-11T01:58:18.951Z,6.90
2018-03-11T02:00:46.624Z,6.80
2018-03-11T02:03:14.271Z,6.80
2018-03-11T02:05:41.923Z,6.70
2018-03-11T02:08:10.346Z,6.50
2018-03-11T02:10:38.002Z,6.50
2018-03-11T02:13:05.662Z,6.50
2018-03-11T02:15:33.321Z,6.40
2018-03-11T02:18:01.024Z,6.30
2018-03-11T02:20:28.740Z,6.20
2018-03-11T02:22:56.362Z,6.20
2018-03-11T02:25:23.997Z,6.10
2018-03-11T02:27:51.624Z,6.10
2018-03-11T02:30:20.057Z,6.00
2018-03-11T02:32:47.699Z,6.00
2018-03-11T02:35:16.134Z,6.00
2018-03-11T02:37:43.776Z,5.90
2018-03-11T02:40:11.420Z,5.90
2018-03-11T02:42:39.101Z,5.90
2018-03-11T02:45:06.766Z,5.90
2018-03-11T02:47:35.219Z,5.80
2018-03-11T02:50:02.887Z,5.80
2018-03-11T02:52:30.543Z,5.80
2018-03-11T02:54:58.968Z,5.70
2018-03-11T02:57:26.603Z,5.70
2018-03-11T02:59:54.279Z,5.70
2018-03-11T03:02:21.911Z,5.70
2018-03-11T03:04:50.348Z,5.70
2018-03-11T03:07:18.009Z,5.70
2018-03-11T03:09:46.456Z,5.70
2018-03-11T03:12:14.084Z,5.60
2018-03-11T03:14:42.520Z,5.70
2018-03-11T03:17:10.223Z,5.70
2018-03-11T03:19:37.842Z,5.70
2018-03-11T03:22:05.542Z,5.80
2018-03-11T03:24:33.163Z,5.80
2018-03-11T03:27:00.845Z,5.80
2018-03-11T03:29:29.215Z,5.80
2018-03-11T03:31:56.868Z,5.90
2018-03-11T03:34:24.492Z,5.90
2018-03-11T03:36:52.166Z,5.90
2018-03-11T03:39:19.816Z,5.90
2018-03-11T03:41:47.483Z,5.90
2018-03-11T03:44:15.919Z,5.90
2018-03-11T03:46:43.563Z,5.90
2018-03-11T03:49:11.195Z,5.90
2018-03-11T03:51:38.837Z,5.80
2018-03-11T03:54:07.253Z,5.90
2018-03-11T03:56:35.664Z,5.90
2018-03-11T03:59:03.308Z,5.90
2018-03-11T04:01:30.968Z,5.90
2018-03-11T04:03:58.612Z,5.90
2018-03-11T04:06:27.055Z,5.90
2018-03-11T04:08:54.681Z,5.90
2018-03-11T04:11:22.327Z,5.90
2018-03-11T04:13:49.979Z,5.90
2018-03-11T04:16:18.411Z,5.90
2018-03-11T04:18:46.043Z,5.90
2018-03-11T04:21:13.683Z,5.90
2018-03-11T04:23:41.347Z,5.90
2018-03-11T04:26:09.714Z,5.90
2018-03-11T04:28:37.356Z,5.90
2018-03-11T04:31:05.013Z,5.90
2018-03-11T04:33:33.431Z,5.90
2018-03-11T04:36:01.038Z,5.90
2018-03-11T04:38:28.748Z,5.90
2018-03-11T04:40:56.411Z,5.90
2018-03-11T04:43:24.079Z,5.90
2018-03-11T04:45:51.719Z,5.90
2018-03-11T04:48:19.351Z,5.90
2018-03-11T04:50:47.051Z,5.80
2018-03-11T04:53:14.681Z,5.80
2018-03-11T04:55:42.335Z,5.80
2018-03-11T04:58:10.024Z,5.80
2018-03-11T05:00:37.675Z,5.80
2018-03-11T05:03:06.114Z,5.70
2018-03-11T05:05:33.742Z,5.70
2018-03-11T05:08:01.383Z,5.70
2018-03-11T05:10:29.067Z,5.70
2018-03-11T05:12:56.704Z,5.70
2018-03-11T05:15:24.367Z,5.70
2018-03-11T05:17:52.774Z,5.70
2018-03-11T05:20:20.423Z,5.70
2018-03-11T05:22:48.076Z,5.70
2018-03-11T05:25:15.740Z,5.70
2018-03-11T05:27:43.517Z,5.70
2018-03-11T05:30:11.160Z,5.70
2018-03-11T05:32:38.799Z,5.70
2018-03-11T05:35:06.422Z,5.70
2018-03-11T05:37:34.135Z,5.60
2018-03-11T05:40:01.797Z,5.60
2018-03-11T05:42:29.452Z,5.60
2018-03-11T05:44:57.776Z,5.60
2018-03-11T05:47:25.435Z,5.60
2018-03-11T05:49:54.059Z,5.70
2018-03-11T05:52:21.716Z,5.60
2018-03-11T05:54:50.201Z,5.70
2018-03-11T05:57:17.889Z,5.70
2018-03-11T05:59:45.555Z,5.70
2018-03-11T06:02:13.180Z,5.70
2018-03-11T06:04:40.819Z,5.70
2018-03-11T06:07:08.528Z,5.70
2018-03-11T06:09:36.996Z,5.80
2018-03-11T06:12:04.626Z,5.70
2018-03-11T06:14:32.299Z,5.70
2018-03-11T06:16:59.964Z,5.80
2018-03-11T06:19:27.619Z,5.80
2018-03-11T06:21:56.071Z,5.80
2018-03-11T06:24:24.031Z,5.80
2018-03-11T06:26:52.489Z,5.80
2018-03-11T06:29:20.125Z,5.80
2018-03-11T06:31:47.807Z,5.80
2018-03-11T06:34:16.739Z,5.80
2018-03-11T06:36:44.415Z,5.80
2018-03-11T06:39:12.064Z,5.90
2018-03-11T06:41:39.743Z,5.90
2018-03-11T06:44:07.417Z,5.90
2018-03-11T06:46:35.111Z,5.90
2018-03-11T06:49:02.775Z,6.00
2018-03-11T06:51:30.431Z,6.00
2018-03-11T06:53:58.872Z,6.10
2018-03-11T06:56:27.331Z,6.20
2018-03-11T06:58:55.760Z,6.20
2018-03-11T07:01:23.404Z,6.20
2018-03-11T07:03:51.088Z,6.30
2018-03-11T07:06:18.751Z,6.40
2018-03-11T07:08:46.399Z,6.50
2018-03-11T07:11:14.072Z,6.60
2018-03-11T07:13:42.479Z,6.80
2018-03-11T07:16:10.928Z,6.90
2018-03-11T07:18:38.564Z,6.90
2018-03-11T07:21:07.004Z,7.10
2018-03-11T07:23:34.684Z,7.10
2018-03-11T07:26:02.325Z,7.30
2018-03-11T07:28:29.991Z,7.40
2018-03-11T07:30:57.627Z,7.50
2018-03-11T07:33:26.052Z,7.90
2018-03-11T07:35:53.694Z,7.80
2018-03-11T07:38:21.381Z,8.00
2018-03-11T07:40:49.840Z,8.10
2018-03-11T07:43:17.759Z,8.30
2018-03-11T07:45:45.434Z,8.50
2018-03-11T07:48:13.086Z,8.60
2018-03-11T07:50:41.512Z,8.80
2018-03-11T07:53:09.155Z,8.80
2018-03-11T07:55:36.811Z,8.80
2018-03-11T07:58:06.278Z,8.80
2018-03-11T08:00:34.697Z,8.90
2018-03-11T08:03:02.367Z,8.90
2018-03-11T08:05:30.793Z,9.10
2018-03-11T08:07:58.482Z,9.10
2018-03-11T08:10:26.099Z,9.30
2018-03-11T08:12:54.495Z,9.50
2018-03-11T08:15:22.153Z,9.50
2018-03-11T08:17:49.833Z,9.60
2018-03-11T08:20:18.328Z,9.80
2018-03-11T08:23:03.160Z,9.80
2018-03-11T08:25:30.835Z,10.00
2018-03-11T08:27:59.227Z,10.20
2018-03-11T08:30:26.894Z,10.20
2018-03-11T08:32:54.590Z,10.50
2018-03-11T08:50:00.616Z,11.60
2018-03-11T08:52:28.327Z,11.80
2018-03-11T08:54:55.965Z,12.10
2018-03-11T08:57:23.627Z,12.30
2018-03-11T08:59:52.043Z,12.50
2018-03-11T09:02:20.475Z,12.70
2018-03-11T09:04:48.121Z,12.60
2018-03-11T09:07:15.752Z,12.80
2018-03-11T09:09:43.420Z,12.90
2018-03-11T09:12:11.822Z,13.10
2018-03-11T09:14:40.264Z,13.20
2018-03-11T09:17:07.925Z,13.20
2018-03-11T09:19:35.806Z,13.10
2018-03-11T09:22:04.274Z,13.10
2018-03-11T09:24:31.924Z,13.10
2018-03-11T09:26:59.571Z,13.10
2018-03-11T09:29:28.094Z,12.90
2018-03-11T09:31:55.759Z,12.80
2018-03-11T09:34:23.415Z,12.80
2018-03-11T09:36:51.087Z,12.80
2018-03-11T09:39:18.748Z,12.80
2018-03-11T09:41:47.138Z,12.70
2018-03-11T09:44:14.819Z,12.70
2018-03-11T09:46:43.220Z,12.60
2018-03-11T09:49:10.903Z,12.60
2018-03-11T09:51:38.528Z,12.70
2018-03-11T09:54:06.216Z,12.70
2018-03-11T09:56:33.844Z,12.80
2018-03-11T09:59:01.511Z,12.80
2018-03-11T10:01:29.943Z,12.90
2018-03-11T10:03:57.596Z,12.80
2018-03-11T10:06:26.007Z,13.00
2018-03-11T10:08:54.399Z,13.10
2018-03-11T10:11:22.819Z,13.10
2018-03-11T10:13:51.227Z,13.10
2018-03-11T10:16:18.872Z,13.10
2018-03-11T10:18:46.557Z,13.10
2018-03-11T10:21:14.934Z,13.20
2018-03-11T10:23:42.624Z,13.20
2018-03-11T10:26:10.300Z,13.20
2018-03-11T10:28:38.007Z,13.30
2018-03-11T10:31:05.639Z,13.40
2018-03-11T10:33:33.615Z,13.50
2018-03-11T10:36:01.290Z,13.70
2018-03-11T10:38:28.945Z,13.80
2018-03-11T10:40:56.594Z,14.00
2018-03-11T10:43:24.241Z,14.10
2018-03-11T10:45:51.887Z,14.20
2018-03-11T10:48:20.308Z,14.30
2018-03-11T10:50:48.014Z,14.20
2018-03-11T10:53:15.643Z,14.30
2018-03-11T10:55:43.270Z,14.30
2018-03-11T10:58:11.108Z,14.40
2018-03-11T11:00:43.442Z,14.40
2018-03-11T11:03:16.799Z,14.40
2018-03-11T11:05:44.451Z,14.30
2018-03-11T11:08:12.892Z,14.40
2018-03-11T11:10:40.537Z,14.30
2018-03-11T11:13:08.990Z,14.40
2018-03-11T11:15:36.629Z,14.40
2018-03-11T11:18:05.096Z,14.40
2018-03-11T11:20:32.731Z,14.40
2018-03-11T11:23:01.125Z,14.40
2018-03-11T11:28:46.400Z,14.40
2018-03-11T11:31:14.865Z,14.60
2018-03-11T11:33:42.495Z,14.60
2018-03-11T11:36:10.132Z,14.60
2018-03-11T11:38:37.783Z,14.70
2018-03-11T11:41:05.467Z,14.70
2018-03-11T11:43:33.126Z,14.70
2018-03-11T11:46:00.743Z,14.80
2018-03-11T11:48:28.412Z,14.80
2018-03-11T11:50:57.339Z,14.90
2018-03-11T11:53:26.231Z,14.80
2018-03-11T11:55:53.891Z,15.00
2018-03-11T11:58:21.538Z,15.00
2018-03-11T12:00:50.032Z,14.90
2018-03-11T12:03:17.660Z,14.90
2018-03-11T12:05:45.331Z,14.90
2018-03-11T12:08:13.763Z,15.00
2018-03-11T12:10:41.439Z,15.00
2018-03-11T12:13:09.078Z,15.00
2018-03-11T12:15:36.744Z,15.00
2018-03-11T12:18:04.384Z,15.00
2018-03-11T12:20:32.035Z,15.00
2018-03-11T12:23:00.911Z,15.10
2018-03-11T12:25:28.642Z,15.20
2018-03-11T12:27:56.360Z,15.20
2018-03-11T12:30:24.007Z,15.20
2018-03-11T12:32:51.642Z,15.30
2018-03-11T12:35:19.251Z,15.40
2018-03-11T12:37:47.655Z,15.60
2018-03-11T12:40:16.034Z,15.70
2018-03-11T12:42:43.681Z,15.70
2018-03-11T12:45:11.383Z,16.00
2018-03-11T12:47:39.040Z,16.20
2018-03-11T12:50:07.464Z,16.30
2018-03-11T12:52:35.123Z,16.30
2018-03-11T12:55:03.580Z,16.20
2018-03-11T12:57:31.228Z,16.20
2018-03-11T12:59:58.896Z,16.20
2018-03-11T13:11:24.247Z,15.90
2018-03-11T13:13:51.868Z,15.80
2018-03-11T13:16:19.530Z,15.70
2018-03-11T13:18:47.154Z,15.70
2018-03-11T13:21:15.591Z,15.70
2018-03-11T13:23:43.263Z,15.70
2018-03-11T13:26:10.921Z,15.80
2018-03-11T13:28:45.563Z,15.80
2018-03-11T13:31:13.219Z,15.90
2018-03-11T13:33:52.815Z,16.00
2018-03-11T13:36:20.460Z,16.10
2018-03-11T13:39:00.071Z,16.30
2018-03-11T13:41:27.717Z,16.50
2018-03-11T13:43:56.194Z,16.70
2018-03-11T13:46:36.578Z,17.20
2018-03-11T13:49:04.304Z,17.20
2018-03-11T13:51:43.607Z,17.40
2018-03-11T13:54:11.332Z,17.40
2018-03-11T13:56:39.646Z,17.60
2018-03-11T13:59:07.401Z,17.80
2018-03-11T14:01:35.799Z,17.80
2018-03-11T14:04:04.252Z,17.90
2018-03-11T14:06:32.984Z,17.80
2018-03-11T14:09:00.664Z,17.90
2018-03-11T14:11:28.305Z,18.00
2018-03-11T14:13:56.826Z,18.00
2018-03-11T14:16:24.510Z,18.00
2018-03-11T14:18:52.227Z,17.90
2018-03-11T14:21:19.906Z,17.80
2018-03-11T14:23:47.546Z,17.80
2018-03-11T14:26:15.259Z,17.60
2018-03-11T14:28:42.921Z,17.50
2018-03-11T14:31:10.587Z,17.30
2018-03-11T14:33:38.253Z,17.10
2018-03-11T14:36:05.883Z,17.00
2018-03-11T14:38:34.552Z,16.80
2018-03-11T14:41:02.179Z,16.70
2018-03-11T14:43:29.844Z,16.50
2018-03-11T14:45:57.504Z,16.30
2018-03-11T14:48:25.201Z,16.20
2018-03-11T14:50:52.878Z,16.10
2018-03-11T14:53:20.556Z,16.00
2018-03-11T14:55:48.971Z,15.90
2018-03-11T14:58:16.675Z,15.90
2018-03-11T15:00:44.347Z,15.90
2018-03-11T15:03:11.979Z,15.80
2018-03-11T15:05:40.204Z,15.80
2018-03-11T15:08:08.639Z,15.70
2018-03-11T15:10:37.040Z,15.70
2018-03-11T15:13:05.447Z,15.60
2018-03-11T15:15:33.884Z,15.50
2018-03-11T15:18:01.544Z,15.50
2018-03-11T15:20:29.207Z,15.50
2018-03-11T15:22:56.853Z,15.40
2018-03-11T15:25:24.539Z,15.40
2018-03-11T15:27:52.176Z,15.30
2018-03-11T15:30:20.607Z,15.20
2018-03-11T15:32:48.255Z,15.20
2018-03-11T15:35:15.919Z,15.20
2018-03-11T15:37:43.590Z,15.20
2018-03-11T15:40:11.310Z,15.10
2018-03-11T15:42:39.747Z,15.00
2018-03-11T15:45:07.435Z,15.00
2018-03-11T15:47:35.141Z,15.00
2018-03-11T15:50:03.600Z,14.90
2018-03-11T15:52:31.295Z,14.90
2018-03-11T15:54:59.368Z,14.90
2018-03-11T15:57:27.041Z,14.80
2018-03-11T15:59:54.721Z,14.80
2018-03-11T16:02:23.119Z,14.70
2018-03-11T16:04:50.785Z,14.60
2018-03-11T16:07:18.407Z,14.70
2018-03-11T16:09:46.852Z,14.60
2018-03-11T16:12:14.850Z,14.60
2018-03-11T16:14:42.638Z,14.60
2018-03-11T16:17:11.538Z,14.50
2018-03-11T16:19:39.519Z,14.50
2018-03-11T16:22:07.908Z,14.50
2018-03-11T16:24:39.724Z,14.40
2018-03-11T16:27:04.315Z,14.40
2018-03-11T16:29:31.988Z,14.30
2018-03-11T16:31:59.681Z,14.30
2018-03-11T16:34:27.330Z,14.20
2018-03-11T16:36:55.790Z,14.20
2018-03-11T16:39:23.493Z,14.10
2018-03-11T16:41:51.329Z,14.10
2018-03-11T16:44:18.961Z,14.10
2018-03-11T16:46:47.354Z,14.00
2018-03-11T16:49:15.099Z,13.90
2018-03-11T16:51:43.490Z,13.90
2018-03-11T16:54:11.532Z,13.80
2018-03-11T16:56:39.200Z,13.80
2018-03-11T16:59:06.846Z,13.70
2018-03-11T17:01:34.970Z,13.70
2018-03-11T17:04:03.541Z,13.60
2018-03-11T17:09:31.906Z,13.50
2018-03-11T17:11:59.544Z,13.40
2018-03-11T17:14:27.956Z,13.30
2018-03-11T17:16:56.396Z,13.20
2018-03-11T17:19:25.137Z,13.20
2018-03-11T17:21:52.845Z,13.10
2018-03-11T17:24:20.647Z,13.00
2018-03-11T17:26:48.285Z,13.00
2018-03-11T17:29:16.020Z,12.90
2018-03-11T17:31:43.647Z,12.80
2018-03-11T17:34:33.356Z,12.80
2018-03-11T17:37:01.112Z,12.70
2018-03-11T17:39:28.823Z,12.60
2018-03-11T17:41:56.451Z,12.50
2018-03-11T17:44:24.844Z,12.40
2018-03-11T17:46:53.268Z,12.40
2018-03-11T17:49:20.903Z,12.40
2018-03-11T17:51:48.757Z,12.30
2018-03-11T17:54:16.469Z,12.30
2018-03-11T17:56:44.945Z,12.10
2018-03-11T17:59:12.591Z,12.10
2018-03-11T18:01:40.306Z,12.00
2018-03-11T18:04:08.736Z,11.90
2018-03-11T18:06:36.372Z,11.90
2018-03-11T18:09:04.443Z,11.80
2018-03-11T18:11:32.119Z,11.70
2018-03-11T18:13:59.987Z,11.70
2018-03-11T18:16:28.443Z,11.60
2018-03-11T18:18:56.164Z,11.50
2018-03-11T18:21:26.114Z,11.50
2018-03-11T18:32:46.597Z,11.30
2018-03-11T18:38:24.796Z,11.10
2018-03-11T18:40:52.680Z,11.10
2018-03-11T18:43:20.600Z,11.00
2018-03-11T18:45:48.878Z,10.90
2018-03-11T18:51:09.682Z,10.90
2018-03-11T18:53:37.345Z,10.80
2018-03-11T18:56:04.999Z,10.80
2018-03-11T18:58:32.663Z,10.80
2018-03-11T19:01:00.409Z,10.70
2018-03-11T19:03:28.080Z,10.70
2018-03-11T19:05:55.743Z,10.60
2018-03-11T19:08:23.408Z,10.60
2018-03-11T19:13:48.436Z,10.50
2018-03-11T19:16:33.868Z,10.50
2018-03-11T19:19:01.496Z,10.50
2018-03-11T19:21:50.867Z,10.50
2018-03-11T19:24:18.519Z,10.50
2018-03-11T19:26:46.942Z,10.40
2018-03-11T19:29:15.049Z,10.40
2018-03-11T19:31:42.712Z,10.40
2018-03-11T19:34:11.118Z,10.40
2018-03-11T19:36:38.794Z,10.30
2018-03-11T19:39:07.459Z,10.30
2018-03-11T19:41:35.154Z,10.30
2018-03-11T19:44:02.859Z,10.30
2018-03-11T19:46:30.508Z,10.30
2018-03-11T19:48:58.220Z,10.30
2018-03-11T19:51:25.865Z,10.20
2018-03-11T19:53:53.551Z,10.20
2018-03-11T19:56:21.921Z,10.10
2018-03-11T19:58:49.792Z,10.10
2018-03-11T20:01:17.531Z,10.10
2018-03-11T20:03:45.232Z,10.10
2018-03-11T20:06:34.867Z,10.10
2018-03-11T20:09:03.371Z,10.10
2018-03-11T20:11:31.989Z,10.10
2018-03-11T20:13:59.647Z,10.10
2018-03-11T20:16:27.331Z,10.10
2018-03-11T20:18:54.980Z,10.10
2018-03-11T20:21:22.636Z,10.00
2018-03-11T20:23:50.300Z,10.00
2018-03-11T20:26:17.948Z,10.00
2018-03-11T20:28:45.580Z,9.90
2018-03-11T20:31:14.050Z,9.90
2018-03-11T20:33:42.471Z,9.90
2018-03-11T20:36:10.225Z,9.90
2018-03-11T20:38:37.954Z,9.90
2018-03-11T20:41:05.608Z,9.90
2018-03-11T20:43:33.308Z,9.90
2018-03-11T20:46:00.956Z,9.80
2018-03-11T20:48:30.122Z,9.80
2018-03-11T20:50:58.408Z,9.80
2018-03-11T20:53:26.815Z,9.80
2018-03-11T20:55:55.319Z,9.80
2018-03-11T20:58:23.932Z,9.70
2018-03-11T21:00:52.348Z,9.70
2018-03-11T21:03:20.803Z,9.70
2018-03-11T21:05:48.465Z,9.70
2018-03-11T21:08:16.076Z,9.70
2018-03-11T21:10:43.762Z,9.70
2018-03-11T21:13:11.440Z,9.70
2018-03-11T21:15:39.074Z,9.70
2018-03-11T21:18:06.789Z,9.60
2018-03-11T21:20:35.164Z,9.60
2018-03-11T21:23:04.713Z,9.50
2018-03-11T21:25:32.372Z,9.60
2018-03-11T21:28:00.024Z,9.50
2018-03-11T21:30:30.634Z,9.50
2018-03-11T21:32:58.330Z,9.50
2018-03-11T21:35:26.127Z,9.50
2018-03-11T21:37:53.778Z,9.40
2018-03-11T21:40:22.203Z,9.40
2018-03-11T21:42:49.855Z,9.40
2018-03-11T21:45:17.555Z,9.40
2018-03-11T21:47:45.155Z,9.30
2018-03-11T21:50:12.782Z,9.30
2018-03-11T21:52:40.552Z,9.30
2018-03-11T21:55:12.090Z,9.30
2018-03-11T21:57:40.681Z,9.20
2018-03-11T22:00:09.126Z,9.20
2018-03-11T22:02:37.599Z,9.10
2018-03-11T22:05:06.012Z,9.10
2018-03-11T22:07:33.639Z,9.00
2018-03-11T22:10:01.252Z,9.10
2018-03-11T22:12:28.894Z,9.00
2018-03-11T22:14:56.511Z,9.00
2018-03-11T22:17:24.163Z,9.00
2018-03-11T22:19:51.807Z,9.00
2018-03-11T22:22:19.755Z,9.00
2018-03-11T22:24:47.379Z,9.00
2018-03-11T22:27:15.029Z,9.00
2018-03-11T22:29:42.785Z,9.00
2018-03-11T22:32:11.217Z,8.90
2018-03-11T22:34:38.930Z,8.90
2018-03-11T22:37:06.538Z,8.90
2018-03-11T22:39:34.208Z,8.90
2018-03-11T22:42:01.861Z,8.90
2018-03-11T22:44:29.520Z,8.90
2018-03-11T22:46:57.927Z,8.90
2018-03-11T22:49:26.344Z,8.80
2018-03-11T22:51:54.008Z,8.90
2018-03-11T22:54:22.429Z,8.80
2018-03-11T22:56:50.116Z,8.80
2018-03-11T22:59:18.544Z,8.90
2018-03-11T23:01:46.186Z,8.80
2018-03-11T23:04:13.864Z,8.90
2018-03-11T23:06:41.502Z,8.90
2018-03-11T23:09:09.179Z,8.90
2018-03-11T23:11:36.816Z,8.90
2018-03-11T23:14:04.447Z,8.80
2018-03-11T23:16:32.080Z,8.80
2018-03-11T23:19:11.528Z,8.80
2018-03-11T23:21:39.163Z,8.80
2018-03-11T23:32:50.768Z,8.80
2018-03-11T23:35:19.181Z,8.90
2018-03-11T23:37:46.799Z,8.80
2018-03-11T23:40:14.466Z,8.80
2018-03-11T23:42:42.062Z,8.80
2018-03-11T23:45:09.739Z,8.80
2018-03-11T23:47:37.344Z,8.90
2018-03-11T23:50:05.053Z,8.80
2018-03-11T23:52:32.742Z,8.80
2018-03-11T23:55:00.424Z,8.80
2018-03-11T23:57:28.107Z,8.80
2018-03-11T23:59:55.739Z,8.80
